sensor_id;sensor_type;location;lat;lon;timestamp;P1;durP1;ratioP1;P2;durP2;ratioP2
7879;SDS011;3985;49.366;2.738;2023-04-26T00:02:16;16.25;;;12.75;;
7879;SDS011;3985;49.366;2.738;2023-04-26T00:04:46;14.50;;;11.00;;
7879;SDS011;3985;49.366;2.738;2023-04-26T00:07:20;11.00;;;9.00;;
7879;SDS011;3985;49.366;2.738;2023-04-26T00:09:48;10.25;;;10.25;;
7879;SDS011;3985;49.366;2.738;2023-04-26T00:12:16;14.25;;;14.25;;
7879;SDS011;3985;49.366;2.738;2023-04-26T00:14:43;7.25;;;4.75;;
7879;SDS011;3985;49.366;2.738;2023-04-26T00:17:10;9.25;;;9.25;;
7879;SDS011;3985;49.366;2.738;2023-04-26T00:19:38;8.25;;;8.25;;
7879;SDS011;3985;49.366;2.738;2023-04-26T00:22:06;10.00;;;7.75;;
7879;SDS011;3985;49.366;2.738;2023-04-26T00:24:33;8.25;;;8.25;;
7879;SDS011;3985;49.366;2.738;2023-04-26T00:27:01;13.50;;;10.75;;
7879;SDS011;3985;49.366;2.738;2023-04-26T00:29:33;14.00;;;11.00;;
7879;SDS011;3985;49.366;2.738;2023-04-26T00:32:00;10.25;;;10.25;;
7879;SDS011;3985;49.366;2.738;2023-04-26T00:34:30;14.00;;;10.50;;
7879;SDS011;3985;49.366;2.738;2023-04-26T00:36:58;16.00;;;13.75;;
7879;SDS011;3985;49.366;2.738;2023-04-26T00:39:26;20.50;;;16.50;;
7879;SDS011;3985;49.366;2.738;2023-04-26T00:41:54;15.50;;;15.50;;
7879;SDS011;3985;49.366;2.738;2023-04-26T00:44:21;14.00;;;14.00;;
7879;SDS011;3985;49.366;2.738;2023-04-26T00:46:48;19.25;;;16.25;;
7879;SDS011;3985;49.366;2.738;2023-04-26T00:49:19;20.75;;;15.25;;
7879;SDS011;3985;49.366;2.738;2023-04-26T00:51:47;17.75;;;17.75;;
7879;SDS011;3985;49.366;2.738;2023-04-26T00:54:15;17.25;;;15.00;;
7879;SDS011;3985;49.366;2.738;2023-04-26T00:56:44;16.25;;;14.00;;
7879;SDS011;3985;49.366;2.738;2023-04-26T00:59:11;13.75;;;11.50;;
7879;SDS011;3985;49.366;2.738;2023-04-26T01:01:38;13.00;;;13.00;;
7879;SDS011;3985;49.366;2.738;2023-04-26T01:04:06;12.50;;;12.50;;
7879;SDS011;3985;49.366;2.738;2023-04-26T01:06:33;10.25;;;10.25;;
7879;SDS011;3985;49.366;2.738;2023-04-26T01:09:03;14.50;;;14.50;;
7879;SDS011;3985;49.366;2.738;2023-04-26T01:11:34;10.00;;;10.00;;
7879;SDS011;3985;49.366;2.738;2023-04-26T01:14:03;15.75;;;13.50;;
7879;SDS011;3985;49.366;2.738;2023-04-26T01:16:32;13.25;;;11.50;;
7879;SDS011;3985;49.366;2.738;2023-04-26T01:19:05;7.50;;;7.50;;
7879;SDS011;3985;49.366;2.738;2023-04-26T01:21:34;10.00;;;10.00;;
7879;SDS011;3985;49.366;2.738;2023-04-26T01:24:03;9.75;;;9.75;;
7879;SDS011;3985;49.366;2.738;2023-04-26T01:26:32;9.75;;;7.00;;
7879;SDS011;3985;49.366;2.738;2023-04-26T01:28:59;12.50;;;10.00;;
7879;SDS011;3985;49.366;2.738;2023-04-26T01:31:27;13.75;;;12.50;;
7879;SDS011;3985;49.366;2.738;2023-04-26T01:33:54;14.50;;;11.00;;
7879;SDS011;3985;49.366;2.738;2023-04-26T01:36:21;16.75;;;14.25;;
7879;SDS011;3985;49.366;2.738;2023-04-26T01:38:48;10.00;;;10.00;;
7879;SDS011;3985;49.366;2.738;2023-04-26T01:41:17;15.75;;;11.75;;
7879;SDS011;3985;49.366;2.738;2023-04-26T01:43:44;10.25;;;6.75;;
7879;SDS011;3985;49.366;2.738;2023-04-26T01:46:11;9.75;;;9.75;;
7879;SDS011;3985;49.366;2.738;2023-04-26T01:48:38;13.00;;;12.00;;
7879;SDS011;3985;49.366;2.738;2023-04-26T01:51:06;10.50;;;10.50;;
7879;SDS011;3985;49.366;2.738;2023-04-26T01:53:33;10.25;;;9.25;;
7879;SDS011;3985;49.366;2.738;2023-04-26T01:56:00;14.75;;;11.75;;
7879;SDS011;3985;49.366;2.738;2023-04-26T01:58:32;11.25;;;10.50;;
7879;SDS011;3985;49.366;2.738;2023-04-26T02:01:03;8.00;;;8.00;;
7879;SDS011;3985;49.366;2.738;2023-04-26T02:03:32;7.00;;;6.00;;
7879;SDS011;3985;49.366;2.738;2023-04-26T02:05:59;10.75;;;7.50;;
7879;SDS011;3985;49.366;2.738;2023-04-26T02:08:27;7.00;;;7.00;;
7879;SDS011;3985;49.366;2.738;2023-04-26T02:10:54;9.25;;;9.00;;
7879;SDS011;3985;49.366;2.738;2023-04-26T02:13:21;10.00;;;10.00;;
7879;SDS011;3985;49.366;2.738;2023-04-26T02:15:53;10.25;;;9.25;;
7879;SDS011;3985;49.366;2.738;2023-04-26T02:18:20;7.50;;;7.50;;
7879;SDS011;3985;49.366;2.738;2023-04-26T02:20:47;8.00;;;8.00;;
7879;SDS011;3985;49.366;2.738;2023-04-26T02:23:15;7.25;;;7.25;;
7879;SDS011;3985;49.366;2.738;2023-04-26T02:25:44;11.00;;;9.00;;
7879;SDS011;3985;49.366;2.738;2023-04-26T02:28:11;4.50;;;2.50;;
7879;SDS011;3985;49.366;2.738;2023-04-26T02:30:38;13.00;;;7.00;;
7879;SDS011;3985;49.366;2.738;2023-04-26T02:33:07;10.25;;;9.75;;
7879;SDS011;3985;49.366;2.738;2023-04-26T02:35:34;9.00;;;9.00;;
7879;SDS011;3985;49.366;2.738;2023-04-26T02:38:04;11.00;;;10.00;;
7879;SDS011;3985;49.366;2.738;2023-04-26T02:40:31;11.50;;;8.25;;
7879;SDS011;3985;49.366;2.738;2023-04-26T02:43:01;9.25;;;6.00;;
7879;SDS011;3985;49.366;2.738;2023-04-26T02:45:28;6.25;;;6.25;;
7879;SDS011;3985;49.366;2.738;2023-04-26T02:47:56;9.50;;;8.50;;
7879;SDS011;3985;49.366;2.738;2023-04-26T02:50:24;10.50;;;7.00;;
7879;SDS011;3985;49.366;2.738;2023-04-26T02:52:51;9.50;;;6.25;;
7879;SDS011;3985;49.366;2.738;2023-04-26T02:55:19;9.25;;;9.25;;
7879;SDS011;3985;49.366;2.738;2023-04-26T02:57:46;10.00;;;9.00;;
7879;SDS011;3985;49.366;2.738;2023-04-26T03:00:13;7.00;;;7.00;;
7879;SDS011;3985;49.366;2.738;2023-04-26T03:02:41;5.50;;;5.50;;
7879;SDS011;3985;49.366;2.738;2023-04-26T03:05:08;14.00;;;7.50;;
7879;SDS011;3985;49.366;2.738;2023-04-26T03:07:36;5.75;;;5.75;;
7879;SDS011;3985;49.366;2.738;2023-04-26T03:10:04;9.50;;;7.00;;
7879;SDS011;3985;49.366;2.738;2023-04-26T03:12:32;6.25;;;6.25;;
7879;SDS011;3985;49.366;2.738;2023-04-26T03:15:00;9.00;;;7.00;;
7879;SDS011;3985;49.366;2.738;2023-04-26T03:17:28;5.25;;;5.25;;
7879;SDS011;3985;49.366;2.738;2023-04-26T03:19:55;6.00;;;6.00;;
7879;SDS011;3985;49.366;2.738;2023-04-26T03:22:22;8.00;;;8.00;;
7879;SDS011;3985;49.366;2.738;2023-04-26T03:24:51;6.50;;;6.50;;
7879;SDS011;3985;49.366;2.738;2023-04-26T03:27:18;6.25;;;5.25;;
7879;SDS011;3985;49.366;2.738;2023-04-26T03:29:45;12.25;;;6.25;;
7879;SDS011;3985;49.366;2.738;2023-04-26T03:32:13;10.00;;;8.00;;
7879;SDS011;3985;49.366;2.738;2023-04-26T03:34:40;5.25;;;5.25;;
7879;SDS011;3985;49.366;2.738;2023-04-26T03:37:07;11.00;;;11.00;;
7879;SDS011;3985;49.366;2.738;2023-04-26T03:39:34;12.50;;;7.00;;
7879;SDS011;3985;49.366;2.738;2023-04-26T03:42:03;12.50;;;12.50;;
7879;SDS011;3985;49.366;2.738;2023-04-26T03:44:30;11.25;;;11.25;;
7879;SDS011;3985;49.366;2.738;2023-04-26T03:46:58;13.00;;;13.00;;
7879;SDS011;3985;49.366;2.738;2023-04-26T03:49:25;15.00;;;15.00;;
7879;SDS011;3985;49.366;2.738;2023-04-26T03:51:54;19.50;;;15.25;;
7879;SDS011;3985;49.366;2.738;2023-04-26T03:54:21;16.75;;;15.25;;
7879;SDS011;3985;49.366;2.738;2023-04-26T03:56:48;19.00;;;16.00;;
7879;SDS011;3985;49.366;2.738;2023-04-26T03:59:17;14.50;;;14.50;;
7879;SDS011;3985;49.366;2.738;2023-04-26T04:01:45;22.50;;;16.25;;
7879;SDS011;3985;49.366;2.738;2023-04-26T04:04:12;19.75;;;18.00;;
7879;SDS011;3985;49.366;2.738;2023-04-26T04:06:40;23.25;;;23.25;;
7879;SDS011;3985;49.366;2.738;2023-04-26T04:09:07;13.75;;;13.75;;
7879;SDS011;3985;49.366;2.738;2023-04-26T04:11:34;15.75;;;15.75;;
7879;SDS011;3985;49.366;2.738;2023-04-26T04:14:02;18.00;;;16.25;;
7879;SDS011;3985;49.366;2.738;2023-04-26T04:16:31;16.00;;;15.00;;
7879;SDS011;3985;49.366;2.738;2023-04-26T04:18:59;16.00;;;16.00;;
7879;SDS011;3985;49.366;2.738;2023-04-26T04:21:29;18.25;;;15.75;;
7879;SDS011;3985;49.366;2.738;2023-04-26T04:23:56;15.75;;;14.25;;
7879;SDS011;3985;49.366;2.738;2023-04-26T04:26:24;17.00;;;13.75;;
7879;SDS011;3985;49.366;2.738;2023-04-26T04:28:52;16.50;;;16.00;;
7879;SDS011;3985;49.366;2.738;2023-04-26T04:31:19;18.50;;;16.50;;
7879;SDS011;3985;49.366;2.738;2023-04-26T04:33:48;15.00;;;15.00;;
7879;SDS011;3985;49.366;2.738;2023-04-26T04:36:15;11.50;;;11.25;;
7879;SDS011;3985;49.366;2.738;2023-04-26T04:38:42;14.50;;;14.50;;
7879;SDS011;3985;49.366;2.738;2023-04-26T04:41:09;9.00;;;9.00;;
7879;SDS011;3985;49.366;2.738;2023-04-26T04:43:37;16.50;;;11.75;;
7879;SDS011;3985;49.366;2.738;2023-04-26T04:46:07;16.50;;;14.25;;
7879;SDS011;3985;49.366;2.738;2023-04-26T04:48:34;17.50;;;11.00;;
7879;SDS011;3985;49.366;2.738;2023-04-26T04:51:04;14.50;;;14.50;;
7879;SDS011;3985;49.366;2.738;2023-04-26T04:53:32;11.75;;;10.00;;
7879;SDS011;3985;49.366;2.738;2023-04-26T04:55:59;19.50;;;15.50;;
7879;SDS011;3985;49.366;2.738;2023-04-26T04:58:26;12.75;;;12.75;;
7879;SDS011;3985;49.366;2.738;2023-04-26T05:00:54;18.25;;;14.25;;
7879;SDS011;3985;49.366;2.738;2023-04-26T05:03:22;16.00;;;15.25;;
7879;SDS011;3985;49.366;2.738;2023-04-26T05:05:49;13.50;;;13.50;;
7879;SDS011;3985;49.366;2.738;2023-04-26T05:08:18;20.50;;;14.25;;
7879;SDS011;3985;49.366;2.738;2023-04-26T05:10:45;12.50;;;12.00;;
7879;SDS011;3985;49.366;2.738;2023-04-26T05:13:15;15.50;;;12.75;;
7879;SDS011;3985;49.366;2.738;2023-04-26T05:15:42;16.50;;;13.50;;
7879;SDS011;3985;49.366;2.738;2023-04-26T05:18:10;17.00;;;16.50;;
7879;SDS011;3985;49.366;2.738;2023-04-26T05:20:39;10.50;;;9.50;;
7879;SDS011;3985;49.366;2.738;2023-04-26T05:23:06;13.50;;;10.00;;
7879;SDS011;3985;49.366;2.738;2023-04-26T05:25:36;9.25;;;9.25;;
7879;SDS011;3985;49.366;2.738;2023-04-26T05:28:04;17.75;;;10.00;;
7879;SDS011;3985;49.366;2.738;2023-04-26T05:30:36;6.25;;;6.25;;
7879;SDS011;3985;49.366;2.738;2023-04-26T05:33:03;17.25;;;12.50;;
7879;SDS011;3985;49.366;2.738;2023-04-26T05:35:30;9.25;;;9.25;;
7879;SDS011;3985;49.366;2.738;2023-04-26T05:37:58;15.00;;;11.00;;
7879;SDS011;3985;49.366;2.738;2023-04-26T05:40:25;14.00;;;11.00;;
7879;SDS011;3985;49.366;2.738;2023-04-26T05:42:54;14.25;;;10.75;;
7879;SDS011;3985;49.366;2.738;2023-04-26T05:45:21;10.25;;;10.25;;
7879;SDS011;3985;49.366;2.738;2023-04-26T05:47:48;15.25;;;10.00;;
7879;SDS011;3985;49.366;2.738;2023-04-26T05:50:16;11.25;;;9.25;;
7879;SDS011;3985;49.366;2.738;2023-04-26T05:52:43;10.75;;;10.50;;
7879;SDS011;3985;49.366;2.738;2023-04-26T05:55:11;8.25;;;8.25;;
7879;SDS011;3985;49.366;2.738;2023-04-26T05:57:38;11.00;;;9.00;;
7879;SDS011;3985;49.366;2.738;2023-04-26T06:00:07;10.75;;;10.75;;
7879;SDS011;3985;49.366;2.738;2023-04-26T06:02:36;7.50;;;7.50;;
7879;SDS011;3985;49.366;2.738;2023-04-26T06:05:04;6.00;;;6.00;;
7879;SDS011;3985;49.366;2.738;2023-04-26T06:07:32;10.25;;;10.25;;
7879;SDS011;3985;49.366;2.738;2023-04-26T06:10:00;10.25;;;10.25;;
7879;SDS011;3985;49.366;2.738;2023-04-26T06:12:27;11.25;;;10.25;;
7879;SDS011;3985;49.366;2.738;2023-04-26T06:14:55;12.75;;;10.75;;
7879;SDS011;3985;49.366;2.738;2023-04-26T06:17:24;9.00;;;9.00;;
7879;SDS011;3985;49.366;2.738;2023-04-26T06:19:51;11.25;;;9.25;;
7879;SDS011;3985;49.366;2.738;2023-04-26T06:22:18;15.75;;;10.25;;
7879;SDS011;3985;49.366;2.738;2023-04-26T06:24:45;11.75;;;10.25;;
7879;SDS011;3985;49.366;2.738;2023-04-26T06:27:12;7.75;;;7.75;;
7879;SDS011;3985;49.366;2.738;2023-04-26T06:29:40;14.00;;;9.50;;
7879;SDS011;3985;49.366;2.738;2023-04-26T06:32:07;17.00;;;12.75;;
7879;SDS011;3985;49.366;2.738;2023-04-26T06:34:36;13.25;;;12.25;;
7879;SDS011;3985;49.366;2.738;2023-04-26T06:37:05;10.00;;;7.75;;
7879;SDS011;3985;49.366;2.738;2023-04-26T06:39:32;10.00;;;10.00;;
7879;SDS011;3985;49.366;2.738;2023-04-26T06:41:59;14.75;;;11.75;;
7879;SDS011;3985;49.366;2.738;2023-04-26T06:44:27;8.00;;;8.00;;
7879;SDS011;3985;49.366;2.738;2023-04-26T06:46:54;11.75;;;9.25;;
7879;SDS011;3985;49.366;2.738;2023-04-26T06:49:22;6.75;;;6.75;;
7879;SDS011;3985;49.366;2.738;2023-04-26T06:51:50;10.25;;;9.75;;
7879;SDS011;3985;49.366;2.738;2023-04-26T06:54:18;10.25;;;10.25;;
7879;SDS011;3985;49.366;2.738;2023-04-26T06:56:45;8.50;;;8.50;;
7879;SDS011;3985;49.366;2.738;2023-04-26T06:59:12;6.75;;;6.75;;
7879;SDS011;3985;49.366;2.738;2023-04-26T07:01:39;13.00;;;9.00;;
7879;SDS011;3985;49.366;2.738;2023-04-26T07:04:06;8.50;;;8.50;;
7879;SDS011;3985;49.366;2.738;2023-04-26T07:06:36;8.00;;;8.00;;
7879;SDS011;3985;49.366;2.738;2023-04-26T07:09:05;10.50;;;10.50;;
7879;SDS011;3985;49.366;2.738;2023-04-26T07:11:32;10.25;;;10.25;;
7879;SDS011;3985;49.366;2.738;2023-04-26T07:14:00;13.00;;;13.00;;
7879;SDS011;3985;49.366;2.738;2023-04-26T07:16:27;9.00;;;9.00;;
7879;SDS011;3985;49.366;2.738;2023-04-26T07:18:54;10.50;;;8.75;;
7879;SDS011;3985;49.366;2.738;2023-04-26T07:21:22;9.50;;;8.00;;
7879;SDS011;3985;49.366;2.738;2023-04-26T07:23:52;9.75;;;8.50;;
7879;SDS011;3985;49.366;2.738;2023-04-26T07:26:21;12.50;;;10.00;;
7879;SDS011;3985;49.366;2.738;2023-04-26T07:28:49;11.50;;;11.50;;
7879;SDS011;3985;49.366;2.738;2023-04-26T07:31:17;4.50;;;4.50;;
7879;SDS011;3985;49.366;2.738;2023-04-26T07:33:44;6.75;;;6.50;;
7879;SDS011;3985;49.366;2.738;2023-04-26T07:36:11;8.50;;;8.00;;
7879;SDS011;3985;49.366;2.738;2023-04-26T07:38:38;5.00;;;5.00;;
7879;SDS011;3985;49.366;2.738;2023-04-26T07:41:05;10.75;;;9.00;;
7879;SDS011;3985;49.366;2.738;2023-04-26T07:43:34;7.25;;;7.25;;
7879;SDS011;3985;49.366;2.738;2023-04-26T07:46:01;7.00;;;7.00;;
7879;SDS011;3985;49.366;2.738;2023-04-26T07:48:30;10.00;;;9.75;;
7879;SDS011;3985;49.366;2.738;2023-04-26T07:51:02;7.25;;;7.25;;
7879;SDS011;3985;49.366;2.738;2023-04-26T07:53:33;10.50;;;10.50;;
7879;SDS011;3985;49.366;2.738;2023-04-26T07:56:00;9.25;;;9.00;;
7879;SDS011;3985;49.366;2.738;2023-04-26T07:58:31;7.50;;;5.00;;
7879;SDS011;3985;49.366;2.738;2023-04-26T08:01:00;8.50;;;8.00;;
7879;SDS011;3985;49.366;2.738;2023-04-26T08:03:28;6.25;;;5.50;;
7879;SDS011;3985;49.366;2.738;2023-04-26T08:05:57;7.25;;;6.50;;
7879;SDS011;3985;49.366;2.738;2023-04-26T08:08:25;11.00;;;11.00;;
7879;SDS011;3985;49.366;2.738;2023-04-26T08:10:52;12.00;;;12.00;;
7879;SDS011;3985;49.366;2.738;2023-04-26T08:13:20;8.50;;;8.50;;
7879;SDS011;3985;49.366;2.738;2023-04-26T08:15:48;7.50;;;5.00;;
7879;SDS011;3985;49.366;2.738;2023-04-26T08:18:16;17.00;;;10.75;;
7879;SDS011;3985;49.366;2.738;2023-04-26T08:20:43;5.00;;;5.00;;
7879;SDS011;3985;49.366;2.738;2023-04-26T08:23:12;9.00;;;7.50;;
7879;SDS011;3985;49.366;2.738;2023-04-26T08:25:40;6.00;;;6.00;;
7879;SDS011;3985;49.366;2.738;2023-04-26T08:28:07;10.00;;;8.75;;
7879;SDS011;3985;49.366;2.738;2023-04-26T08:30:38;6.75;;;5.00;;
7879;SDS011;3985;49.366;2.738;2023-04-26T08:33:07;8.00;;;8.00;;
7879;SDS011;3985;49.366;2.738;2023-04-26T08:35:35;6.00;;;6.00;;
7879;SDS011;3985;49.366;2.738;2023-04-26T08:38:02;6.75;;;6.50;;
7879;SDS011;3985;49.366;2.738;2023-04-26T08:40:29;5.50;;;4.50;;
7879;SDS011;3985;49.366;2.738;2023-04-26T08:42:56;6.75;;;5.25;;
7879;SDS011;3985;49.366;2.738;2023-04-26T08:45:24;8.50;;;5.50;;
7879;SDS011;3985;49.366;2.738;2023-04-26T08:47:51;6.00;;;6.00;;
7879;SDS011;3985;49.366;2.738;2023-04-26T08:50:22;10.00;;;6.00;;
7879;SDS011;3985;49.366;2.738;2023-04-26T08:52:50;9.25;;;7.00;;
7879;SDS011;3985;49.366;2.738;2023-04-26T08:55:18;5.00;;;5.00;;
7879;SDS011;3985;49.366;2.738;2023-04-26T08:57:46;5.00;;;5.00;;
7879;SDS011;3985;49.366;2.738;2023-04-26T09:00:14;5.00;;;5.00;;
7879;SDS011;3985;49.366;2.738;2023-04-26T09:02:45;5.00;;;5.00;;
7879;SDS011;3985;49.366;2.738;2023-04-26T09:05:13;11.00;;;6.33;;
7879;SDS011;3985;49.366;2.738;2023-04-26T09:07:43;5.67;;;5.67;;
7879;SDS011;3985;49.366;2.738;2023-04-26T09:10:11;6.67;;;6.67;;
7879;SDS011;3985;49.366;2.738;2023-04-26T09:12:39;6.50;;;5.25;;
7879;SDS011;3985;49.366;2.738;2023-04-26T09:15:07;6.25;;;6.25;;
7879;SDS011;3985;49.366;2.738;2023-04-26T09:17:36;6.00;;;6.00;;
7879;SDS011;3985;49.366;2.738;2023-04-26T09:20:19;5.00;;;5.00;;
7879;SDS011;3985;49.366;2.738;2023-04-26T09:22:48;6.00;;;6.00;;
7879;SDS011;3985;49.366;2.738;2023-04-26T09:25:16;5.75;;;5.75;;
7879;SDS011;3985;49.366;2.738;2023-04-26T09:27:45;5.67;;;5.67;;
7879;SDS011;3985;49.366;2.738;2023-04-26T09:30:13;6.00;;;6.00;;
7879;SDS011;3985;49.366;2.738;2023-04-26T09:32:45;4.00;;;4.00;;
7879;SDS011;3985;49.366;2.738;2023-04-26T09:35:25;5.67;;;5.00;;
7879;SDS011;3985;49.366;2.738;2023-04-26T09:37:55;6.00;;;6.00;;
7879;SDS011;3985;49.366;2.738;2023-04-26T09:40:24;8.00;;;8.00;;
7879;SDS011;3985;49.366;2.738;2023-04-26T09:42:57;8.50;;;6.00;;
7879;SDS011;3985;49.366;2.738;2023-04-26T09:45:26;5.50;;;4.50;;
7879;SDS011;3985;49.366;2.738;2023-04-26T09:47:54;4.25;;;4.25;;
7879;SDS011;3985;49.366;2.738;2023-04-26T09:50:25;7.00;;;7.00;;
7879;SDS011;3985;49.366;2.738;2023-04-26T09:52:57;6.00;;;5.00;;
7879;SDS011;3985;49.366;2.738;2023-04-26T09:55:27;6.25;;;4.75;;
7879;SDS011;3985;49.366;2.738;2023-04-26T09:57:55;6.75;;;5.00;;
7879;SDS011;3985;49.366;2.738;2023-04-26T10:00:24;5.50;;;5.25;;
7879;SDS011;3985;49.366;2.738;2023-04-26T10:02:52;4.75;;;4.75;;
7879;SDS011;3985;49.366;2.738;2023-04-26T10:05:21;4.25;;;4.25;;
7879;SDS011;3985;49.366;2.738;2023-04-26T10:07:48;3.25;;;3.25;;
7879;SDS011;3985;49.366;2.738;2023-04-26T10:10:18;6.00;;;6.00;;
7879;SDS011;3985;49.366;2.738;2023-04-26T10:12:47;5.50;;;4.75;;
7879;SDS011;3985;49.366;2.738;2023-04-26T10:15:14;4.25;;;4.25;;
7879;SDS011;3985;49.366;2.738;2023-04-26T10:17:41;3.75;;;2.75;;
7879;SDS011;3985;49.366;2.738;2023-04-26T10:20:10;4.75;;;4.75;;
7879;SDS011;3985;49.366;2.738;2023-04-26T10:22:39;4.25;;;4.25;;
7879;SDS011;3985;49.366;2.738;2023-04-26T10:25:10;7.00;;;5.50;;
7879;SDS011;3985;49.366;2.738;2023-04-26T10:27:50;5.00;;;5.00;;
7879;SDS011;3985;49.366;2.738;2023-04-26T10:30:21;4.00;;;4.00;;
7879;SDS011;3985;49.366;2.738;2023-04-26T10:35:57;3.75;;;3.75;;
7879;SDS011;3985;49.366;2.738;2023-04-26T10:38:36;4.00;;;4.00;;
7879;SDS011;3985;49.366;2.738;2023-04-26T10:43:58;3.75;;;3.75;;
7879;SDS011;3985;49.366;2.738;2023-04-26T10:46:33;4.75;;;4.75;;
7879;SDS011;3985;49.366;2.738;2023-04-26T10:49:14;8.00;;;5.25;;
7879;SDS011;3985;49.366;2.738;2023-04-26T10:54:46;2.50;;;2.50;;
7879;SDS011;3985;49.366;2.738;2023-04-26T10:57:23;6.00;;;6.00;;
7879;SDS011;3985;49.366;2.738;2023-04-26T11:00:15;4.25;;;4.25;;
7879;SDS011;3985;49.366;2.738;2023-04-26T11:02:55;8.25;;;5.00;;
7879;SDS011;3985;49.366;2.738;2023-04-26T11:05:34;7.25;;;5.50;;
7879;SDS011;3985;49.366;2.738;2023-04-26T11:08:08;4.25;;;4.25;;
7879;SDS011;3985;49.366;2.738;2023-04-26T11:10:41;5.00;;;5.00;;
7879;SDS011;3985;49.366;2.738;2023-04-26T11:13:11;4.25;;;4.25;;
7879;SDS011;3985;49.366;2.738;2023-04-26T11:15:39;4.50;;;4.50;;
7879;SDS011;3985;49.366;2.738;2023-04-26T11:18:06;3.25;;;3.25;;
7879;SDS011;3985;49.366;2.738;2023-04-26T11:20:33;6.00;;;6.00;;
7879;SDS011;3985;49.366;2.738;2023-04-26T11:23:01;4.00;;;4.00;;
7879;SDS011;3985;49.366;2.738;2023-04-26T11:25:28;3.25;;;3.25;;
7879;SDS011;3985;49.366;2.738;2023-04-26T11:27:56;4.00;;;4.00;;
7879;SDS011;3985;49.366;2.738;2023-04-26T11:30:27;3.00;;;3.00;;
7879;SDS011;3985;49.366;2.738;2023-04-26T11:32:57;6.50;;;4.25;;
7879;SDS011;3985;49.366;2.738;2023-04-26T11:35:24;4.00;;;4.00;;
7879;SDS011;3985;49.366;2.738;2023-04-26T11:37:56;5.00;;;5.00;;
7879;SDS011;3985;49.366;2.738;2023-04-26T11:40:26;7.00;;;5.00;;
7879;SDS011;3985;49.366;2.738;2023-04-26T11:42:57;5.50;;;4.00;;
7879;SDS011;3985;49.366;2.738;2023-04-26T11:45:26;3.75;;;3.75;;
7879;SDS011;3985;49.366;2.738;2023-04-26T11:47:53;6.25;;;4.25;;
7879;SDS011;3985;49.366;2.738;2023-04-26T11:50:22;3.50;;;3.50;;
7879;SDS011;3985;49.366;2.738;2023-04-26T11:52:52;3.80;;;3.80;;
7879;SDS011;3985;49.366;2.738;2023-04-26T11:55:22;4.80;;;4.80;;
7879;SDS011;3985;49.366;2.738;2023-04-26T11:57:51;7.00;;;5.00;;
7879;SDS011;3985;49.366;2.738;2023-04-26T12:00:19;3.25;;;3.25;;
7879;SDS011;3985;49.366;2.738;2023-04-26T12:02:47;5.50;;;5.50;;
7879;SDS011;3985;49.366;2.738;2023-04-26T12:05:24;5.50;;;5.25;;
7879;SDS011;3985;49.366;2.738;2023-04-26T12:07:52;5.25;;;5.25;;
7879;SDS011;3985;49.366;2.738;2023-04-26T12:10:22;4.50;;;4.50;;
7879;SDS011;3985;49.366;2.738;2023-04-26T12:12:51;4.00;;;4.00;;
7879;SDS011;3985;49.366;2.738;2023-04-26T12:15:24;6.00;;;4.00;;
7879;SDS011;3985;49.366;2.738;2023-04-26T12:17:55;4.75;;;4.75;;
7879;SDS011;3985;49.366;2.738;2023-04-26T12:20:29;4.25;;;4.25;;
7879;SDS011;3985;49.366;2.738;2023-04-26T12:23:01;4.00;;;4.00;;
7879;SDS011;3985;49.366;2.738;2023-04-26T12:25:29;6.00;;;6.00;;
7879;SDS011;3985;49.366;2.738;2023-04-26T12:27:57;5.40;;;4.40;;
7879;SDS011;3985;49.366;2.738;2023-04-26T12:30:25;4.60;;;4.60;;
7879;SDS011;3985;49.366;2.738;2023-04-26T12:32:53;6.50;;;5.00;;
7879;SDS011;3985;49.366;2.738;2023-04-26T12:35:22;4.25;;;4.25;;
7879;SDS011;3985;49.366;2.738;2023-04-26T12:37:53;4.50;;;4.50;;
7879;SDS011;3985;49.366;2.738;2023-04-26T12:40:21;4.50;;;4.00;;
7879;SDS011;3985;49.366;2.738;2023-04-26T12:42:49;4.75;;;4.75;;
7879;SDS011;3985;49.366;2.738;2023-04-26T12:45:17;3.75;;;3.75;;
7879;SDS011;3985;49.366;2.738;2023-04-26T12:47:44;4.00;;;4.00;;
7879;SDS011;3985;49.366;2.738;2023-04-26T12:50:12;4.50;;;3.00;;
7879;SDS011;3985;49.366;2.738;2023-04-26T12:52:40;4.40;;;4.00;;
7879;SDS011;3985;49.366;2.738;2023-04-26T12:55:10;4.20;;;4.20;;
7879;SDS011;3985;49.366;2.738;2023-04-26T12:57:38;6.80;;;3.00;;
7879;SDS011;3985;49.366;2.738;2023-04-26T13:00:16;6.40;;;5.00;;
7879;SDS011;3985;49.366;2.738;2023-04-26T13:02:46;4.20;;;4.20;;
7879;SDS011;3985;49.366;2.738;2023-04-26T13:05:22;5.20;;;3.60;;
7879;SDS011;3985;49.366;2.738;2023-04-26T13:07:49;4.75;;;4.00;;
7879;SDS011;3985;49.366;2.738;2023-04-26T13:10:18;4.25;;;4.25;;
7879;SDS011;3985;49.366;2.738;2023-04-26T13:12:45;5.75;;;4.75;;
7879;SDS011;3985;49.366;2.738;2023-04-26T13:15:12;6.00;;;4.00;;
7879;SDS011;3985;49.366;2.738;2023-04-26T13:17:39;6.00;;;6.00;;
7879;SDS011;3985;49.366;2.738;2023-04-26T13:20:08;3.50;;;3.50;;
7879;SDS011;3985;49.366;2.738;2023-04-26T13:22:36;4.25;;;4.00;;
7879;SDS011;3985;49.366;2.738;2023-04-26T13:25:06;4.25;;;4.25;;
7879;SDS011;3985;49.366;2.738;2023-04-26T13:27:35;5.25;;;5.25;;
7879;SDS011;3985;49.366;2.738;2023-04-26T13:30:03;3.50;;;3.00;;
7879;SDS011;3985;49.366;2.738;2023-04-26T13:32:31;5.50;;;4.00;;
7879;SDS011;3985;49.366;2.738;2023-04-26T13:34:58;4.50;;;4.00;;
7879;SDS011;3985;49.366;2.738;2023-04-26T13:37:26;5.50;;;5.00;;
7879;SDS011;3985;49.366;2.738;2023-04-26T13:39:53;3.50;;;3.50;;
7879;SDS011;3985;49.366;2.738;2023-04-26T13:42:20;5.50;;;5.00;;
7879;SDS011;3985;49.366;2.738;2023-04-26T13:44:49;7.00;;;5.25;;
7879;SDS011;3985;49.366;2.738;2023-04-26T13:47:16;5.00;;;5.00;;
7879;SDS011;3985;49.366;2.738;2023-04-26T13:49:43;5.25;;;5.25;;
7879;SDS011;3985;49.366;2.738;2023-04-26T13:52:10;3.25;;;3.00;;
7879;SDS011;3985;49.366;2.738;2023-04-26T13:54:37;5.25;;;4.50;;
7879;SDS011;3985;49.366;2.738;2023-04-26T13:57:05;4.00;;;4.00;;
7879;SDS011;3985;49.366;2.738;2023-04-26T13:59:32;5.00;;;4.50;;
7879;SDS011;3985;49.366;2.738;2023-04-26T14:02:00;5.00;;;4.50;;
7879;SDS011;3985;49.366;2.738;2023-04-26T14:04:28;3.50;;;3.50;;
7879;SDS011;3985;49.366;2.738;2023-04-26T14:06:55;5.75;;;4.00;;
7879;SDS011;3985;49.366;2.738;2023-04-26T14:09:22;3.75;;;3.75;;
7879;SDS011;3985;49.366;2.738;2023-04-26T14:11:49;5.75;;;5.75;;
7879;SDS011;3985;49.366;2.738;2023-04-26T14:14:16;7.25;;;4.75;;
7879;SDS011;3985;49.366;2.738;2023-04-26T14:16:44;5.25;;;5.25;;
7879;SDS011;3985;49.366;2.738;2023-04-26T14:19:12;5.75;;;5.00;;
7879;SDS011;3985;49.366;2.738;2023-04-26T14:21:39;5.50;;;5.50;;
7879;SDS011;3985;49.366;2.738;2023-04-26T14:24:07;4.00;;;4.00;;
7879;SDS011;3985;49.366;2.738;2023-04-26T14:26:35;5.00;;;5.00;;
7879;SDS011;3985;49.366;2.738;2023-04-26T14:29:02;4.75;;;4.75;;
7879;SDS011;3985;49.366;2.738;2023-04-26T14:31:30;4.75;;;4.75;;
7879;SDS011;3985;49.366;2.738;2023-04-26T14:33:57;5.75;;;4.50;;
7879;SDS011;3985;49.366;2.738;2023-04-26T14:36:26;3.00;;;3.00;;
7879;SDS011;3985;49.366;2.738;2023-04-26T14:38:53;4.75;;;4.00;;
7879;SDS011;3985;49.366;2.738;2023-04-26T14:41:20;4.25;;;4.25;;
7879;SDS011;3985;49.366;2.738;2023-04-26T14:43:47;4.00;;;4.00;;
7879;SDS011;3985;49.366;2.738;2023-04-26T14:46:16;4.25;;;4.25;;
7879;SDS011;3985;49.366;2.738;2023-04-26T14:48:44;3.00;;;3.00;;
7879;SDS011;3985;49.366;2.738;2023-04-26T14:51:11;4.00;;;4.00;;
7879;SDS011;3985;49.366;2.738;2023-04-26T14:53:43;3.00;;;3.00;;
7879;SDS011;3985;49.366;2.738;2023-04-26T14:56:10;3.25;;;3.25;;
7879;SDS011;3985;49.366;2.738;2023-04-26T14:58:38;2.50;;;2.50;;
7879;SDS011;3985;49.366;2.738;2023-04-26T15:01:06;6.75;;;3.75;;
7879;SDS011;3985;49.366;2.738;2023-04-26T15:03:34;4.25;;;4.25;;
7879;SDS011;3985;49.366;2.738;2023-04-26T15:06:01;5.00;;;5.00;;
7879;SDS011;3985;49.366;2.738;2023-04-26T15:08:29;4.50;;;4.50;;
7879;SDS011;3985;49.366;2.738;2023-04-26T15:10:58;4.75;;;4.75;;
7879;SDS011;3985;49.366;2.738;2023-04-26T15:13:25;5.00;;;5.00;;
7879;SDS011;3985;49.366;2.738;2023-04-26T15:15:53;5.25;;;3.75;;
7879;SDS011;3985;49.366;2.738;2023-04-26T15:18:20;3.25;;;3.25;;
7879;SDS011;3985;49.366;2.738;2023-04-26T15:20:47;3.50;;;3.50;;
7879;SDS011;3985;49.366;2.738;2023-04-26T15:23:16;4.00;;;4.00;;